sensor_id;sensor_type;location;lat;lon;timestamp;P1;durP1;ratioP1;P2;durP2;ratioP2
5452;SDS011;2749;53.576;9.822;2023-06-01T00:01:23;11.90;;;7.30;;
5452;SDS011;2749;53.576;9.822;2023-06-01T00:03:49;8.40;;;6.40;;
5452;SDS011;2749;53.576;9.822;2023-06-01T00:06:15;13.77;;;6.17;;
5452;SDS011;2749;53.576;9.822;2023-06-01T00:08:41;11.00;;;7.10;;
5452;SDS011;2749;53.576;9.822;2023-06-01T00:11:07;7.33;;;5.67;;
5452;SDS011;2749;53.576;9.822;2023-06-01T00:13:33;12.50;;;6.00;;
5452;SDS011;2749;53.576;9.822;2023-06-01T00:15:59;9.80;;;5.47;;
5452;SDS011;2749;53.576;9.822;2023-06-01T00:18:25;8.30;;;6.17;;
5452;SDS011;2749;53.576;9.822;2023-06-01T00:20:52;10.80;;;6.23;;
5452;SDS011;2749;53.576;9.822;2023-06-01T00:23:18;14.23;;;6.10;;
5452;SDS011;2749;53.576;9.822;2023-06-01T00:25:45;13.17;;;6.37;;
5452;SDS011;2749;53.576;9.822;2023-06-01T00:28:11;9.67;;;6.53;;
5452;SDS011;2749;53.576;9.822;2023-06-01T00:30:37;8.40;;;6.77;;
5452;SDS011;2749;53.576;9.822;2023-06-01T00:33:02;10.23;;;6.67;;
5452;SDS011;2749;53.576;9.822;2023-06-01T00:35:28;10.27;;;6.70;;
5452;SDS011;2749;53.576;9.822;2023-06-01T00:37:54;12.03;;;7.87;;
5452;SDS011;2749;53.576;9.822;2023-06-01T00:40:22;11.47;;;6.50;;
5452;SDS011;2749;53.576;9.822;2023-06-01T00:42:47;10.83;;;5.87;;
5452;SDS011;2749;53.576;9.822;2023-06-01T00:45:13;10.57;;;5.27;;
5452;SDS011;2749;53.576;9.822;2023-06-01T00:47:40;15.07;;;5.80;;
5452;SDS011;2749;53.576;9.822;2023-06-01T00:50:07;7.70;;;5.37;;
5452;SDS011;2749;53.576;9.822;2023-06-01T00:52:33;8.07;;;4.10;;
5452;SDS011;2749;53.576;9.822;2023-06-01T00:55:00;7.47;;;5.77;;
5452;SDS011;2749;53.576;9.822;2023-06-01T00:57:26;9.93;;;5.57;;
5452;SDS011;2749;53.576;9.822;2023-06-01T00:59:52;6.67;;;5.43;;
5452;SDS011;2749;53.576;9.822;2023-06-01T01:02:18;6.40;;;4.40;;
5452;SDS011;2749;53.576;9.822;2023-06-01T01:04:46;5.53;;;4.17;;
5452;SDS011;2749;53.576;9.822;2023-06-01T01:07:25;9.90;;;5.47;;
5452;SDS011;2749;53.576;9.822;2023-06-01T01:09:58;13.07;;;7.07;;
5452;SDS011;2749;53.576;9.822;2023-06-01T01:12:31;9.60;;;6.23;;
5452;SDS011;2749;53.576;9.822;2023-06-01T01:15:43;10.80;;;5.27;;
5452;SDS011;2749;53.576;9.822;2023-06-01T01:17:47;7.37;;;4.70;;
5452;SDS011;2749;53.576;9.822;2023-06-01T01:20:23;12.80;;;6.60;;
5452;SDS011;2749;53.576;9.822;2023-06-01T01:28:00;11.17;;;7.43;;
5452;SDS011;2749;53.576;9.822;2023-06-01T01:30:32;8.57;;;5.90;;
5452;SDS011;2749;53.576;9.822;2023-06-01T01:33:00;11.60;;;5.90;;
5452;SDS011;2749;53.576;9.822;2023-06-01T01:35:28;9.40;;;4.90;;
5452;SDS011;2749;53.576;9.822;2023-06-01T01:37:54;15.20;;;6.23;;
5452;SDS011;2749;53.576;9.822;2023-06-01T01:40:21;11.00;;;6.33;;
5452;SDS011;2749;53.576;9.822;2023-06-01T01:42:47;9.80;;;6.30;;
5452;SDS011;2749;53.576;9.822;2023-06-01T01:45:14;11.03;;;7.00;;
5452;SDS011;2749;53.576;9.822;2023-06-01T01:47:46;9.80;;;5.40;;
5452;SDS011;2749;53.576;9.822;2023-06-01T01:50:12;9.57;;;6.67;;
5452;SDS011;2749;53.576;9.822;2023-06-01T01:52:39;11.90;;;6.17;;
5452;SDS011;2749;53.576;9.822;2023-06-01T01:55:07;12.37;;;5.40;;
5452;SDS011;2749;53.576;9.822;2023-06-01T01:57:33;9.27;;;5.93;;
5452;SDS011;2749;53.576;9.822;2023-06-01T02:00:00;10.40;;;6.43;;
5452;SDS011;2749;53.576;9.822;2023-06-01T02:02:27;13.40;;;5.90;;
5452;SDS011;2749;53.576;9.822;2023-06-01T02:04:53;11.60;;;5.80;;
5452;SDS011;2749;53.576;9.822;2023-06-01T02:07:19;10.70;;;7.23;;
5452;SDS011;2749;53.576;9.822;2023-06-01T02:09:44;8.23;;;5.43;;
5452;SDS011;2749;53.576;9.822;2023-06-01T02:12:10;9.07;;;5.57;;
5452;SDS011;2749;53.576;9.822;2023-06-01T02:14:36;10.43;;;5.17;;
5452;SDS011;2749;53.576;9.822;2023-06-01T02:17:02;9.60;;;5.27;;
5452;SDS011;2749;53.576;9.822;2023-06-01T02:19:30;11.50;;;5.80;;
5452;SDS011;2749;53.576;9.822;2023-06-01T02:21:57;12.40;;;6.20;;
5452;SDS011;2749;53.576;9.822;2023-06-01T02:24:23;10.50;;;6.37;;
5452;SDS011;2749;53.576;9.822;2023-06-01T02:26:49;8.20;;;5.23;;
5452;SDS011;2749;53.576;9.822;2023-06-01T02:29:18;6.77;;;5.70;;
5452;SDS011;2749;53.576;9.822;2023-06-01T02:31:46;11.43;;;5.60;;
5452;SDS011;2749;53.576;9.822;2023-06-01T02:34:12;13.00;;;5.30;;
5452;SDS011;2749;53.576;9.822;2023-06-01T02:36:38;14.67;;;4.67;;
5452;SDS011;2749;53.576;9.822;2023-06-01T02:39:04;13.40;;;4.90;;
5452;SDS011;2749;53.576;9.822;2023-06-01T02:41:31;16.17;;;6.43;;
5452;SDS011;2749;53.576;9.822;2023-06-01T02:43:57;12.90;;;5.10;;
5452;SDS011;2749;53.576;9.822;2023-06-01T02:46:23;9.10;;;5.70;;
5452;SDS011;2749;53.576;9.822;2023-06-01T02:48:49;10.00;;;5.20;;
5452;SDS011;2749;53.576;9.822;2023-06-01T02:51:16;14.23;;;5.47;;
5452;SDS011;2749;53.576;9.822;2023-06-01T02:53:43;16.60;;;4.83;;
5452;SDS011;2749;53.576;9.822;2023-06-01T02:56:11;8.73;;;5.23;;
5452;SDS011;2749;53.576;9.822;2023-06-01T02:58:37;7.53;;;4.80;;
5452;SDS011;2749;53.576;9.822;2023-06-01T03:01:03;11.70;;;5.40;;
5452;SDS011;2749;53.576;9.822;2023-06-01T03:03:29;10.20;;;5.40;;
5452;SDS011;2749;53.576;9.822;2023-06-01T03:05:55;9.70;;;4.40;;
5452;SDS011;2749;53.576;9.822;2023-06-01T03:08:22;10.50;;;5.83;;
5452;SDS011;2749;53.576;9.822;2023-06-01T03:10:49;8.03;;;4.03;;
5452;SDS011;2749;53.576;9.822;2023-06-01T03:13:15;10.20;;;5.20;;
5452;SDS011;2749;53.576;9.822;2023-06-01T03:15:41;8.80;;;5.37;;
5452;SDS011;2749;53.576;9.822;2023-06-01T03:18:07;10.27;;;5.00;;
5452;SDS011;2749;53.576;9.822;2023-06-01T03:20:36;11.13;;;4.53;;
5452;SDS011;2749;53.576;9.822;2023-06-01T03:23:02;14.97;;;4.60;;
5452;SDS011;2749;53.576;9.822;2023-06-01T03:25:28;9.43;;;4.80;;
5452;SDS011;2749;53.576;9.822;2023-06-01T03:27:54;11.23;;;5.10;;
5452;SDS011;2749;53.576;9.822;2023-06-01T03:30:20;10.03;;;4.87;;
5452;SDS011;2749;53.576;9.822;2023-06-01T03:32:46;10.90;;;5.27;;
5452;SDS011;2749;53.576;9.822;2023-06-01T03:35:12;7.97;;;4.30;;
5452;SDS011;2749;53.576;9.822;2023-06-01T03:37:40;7.00;;;5.00;;
5452;SDS011;2749;53.576;9.822;2023-06-01T03:40:06;11.97;;;6.17;;
5452;SDS011;2749;53.576;9.822;2023-06-01T03:42:36;11.97;;;5.20;;
5452;SDS011;2749;53.576;9.822;2023-06-01T03:45:03;13.20;;;6.37;;
5452;SDS011;2749;53.576;9.822;2023-06-01T03:47:29;20.60;;;6.80;;
5452;SDS011;2749;53.576;9.822;2023-06-01T03:49:55;8.73;;;5.33;;
5452;SDS011;2749;53.576;9.822;2023-06-01T03:52:23;9.37;;;5.60;;
5452;SDS011;2749;53.576;9.822;2023-06-01T03:54:49;11.37;;;7.40;;
5452;SDS011;2749;53.576;9.822;2023-06-01T03:57:15;8.90;;;5.73;;
5452;SDS011;2749;53.576;9.822;2023-06-01T03:59:41;10.27;;;4.70;;
5452;SDS011;2749;53.576;9.822;2023-06-01T04:02:07;10.37;;;4.80;;
5452;SDS011;2749;53.576;9.822;2023-06-01T04:04:34;10.57;;;5.33;;
5452;SDS011;2749;53.576;9.822;2023-06-01T04:07:01;12.37;;;5.60;;
5452;SDS011;2749;53.576;9.822;2023-06-01T04:09:28;7.20;;;5.73;;
5452;SDS011;2749;53.576;9.822;2023-06-01T04:11:54;9.57;;;5.30;;
5452;SDS011;2749;53.576;9.822;2023-06-01T04:14:20;10.33;;;6.03;;
5452;SDS011;2749;53.576;9.822;2023-06-01T04:16:46;12.13;;;4.63;;
5452;SDS011;2749;53.576;9.822;2023-06-01T04:19:12;8.90;;;5.10;;
5452;SDS011;2749;53.576;9.822;2023-06-01T04:21:38;8.60;;;5.07;;
5452;SDS011;2749;53.576;9.822;2023-06-01T04:24:05;11.93;;;5.93;;
5452;SDS011;2749;53.576;9.822;2023-06-01T04:26:31;8.87;;;6.20;;
5452;SDS011;2749;53.576;9.822;2023-06-01T04:28:57;12.73;;;6.83;;
5452;SDS011;2749;53.576;9.822;2023-06-01T04:31:23;5.13;;;4.40;;
5452;SDS011;2749;53.576;9.822;2023-06-01T04:33:49;12.50;;;5.87;;
5452;SDS011;2749;53.576;9.822;2023-06-01T04:36:22;7.43;;;4.47;;
5452;SDS011;2749;53.576;9.822;2023-06-01T04:38:50;13.03;;;5.47;;
5452;SDS011;2749;53.576;9.822;2023-06-01T04:41:19;9.17;;;4.60;;
5452;SDS011;2749;53.576;9.822;2023-06-01T04:43:46;10.40;;;4.20;;
5452;SDS011;2749;53.576;9.822;2023-06-01T04:46:17;11.90;;;5.77;;
5452;SDS011;2749;53.576;9.822;2023-06-01T04:48:43;12.80;;;5.50;;
5452;SDS011;2749;53.576;9.822;2023-06-01T04:51:09;15.27;;;4.83;;
5452;SDS011;2749;53.576;9.822;2023-06-01T04:53:35;8.50;;;5.10;;
5452;SDS011;2749;53.576;9.822;2023-06-01T04:56:01;7.97;;;4.67;;
5452;SDS011;2749;53.576;9.822;2023-06-01T04:58:27;15.00;;;7.00;;
5452;SDS011;2749;53.576;9.822;2023-06-01T05:00:53;10.63;;;6.70;;
5452;SDS011;2749;53.576;9.822;2023-06-01T05:03:20;14.20;;;5.17;;
5452;SDS011;2749;53.576;9.822;2023-06-01T05:05:46;7.00;;;5.23;;
5452;SDS011;2749;53.576;9.822;2023-06-01T05:08:12;11.33;;;5.27;;
5452;SDS011;2749;53.576;9.822;2023-06-01T05:10:40;12.33;;;4.50;;
5452;SDS011;2749;53.576;9.822;2023-06-01T05:13:05;16.40;;;6.63;;
5452;SDS011;2749;53.576;9.822;2023-06-01T05:15:31;11.53;;;4.53;;
5452;SDS011;2749;53.576;9.822;2023-06-01T05:17:57;7.63;;;5.13;;
5452;SDS011;2749;53.576;9.822;2023-06-01T05:20:23;13.33;;;5.60;;
5452;SDS011;2749;53.576;9.822;2023-06-01T05:22:49;8.90;;;6.27;;
5452;SDS011;2749;53.576;9.822;2023-06-01T05:25:15;12.73;;;5.47;;
5452;SDS011;2749;53.576;9.822;2023-06-01T05:27:42;8.03;;;5.07;;
5452;SDS011;2749;53.576;9.822;2023-06-01T05:30:08;10.57;;;4.63;;
5452;SDS011;2749;53.576;9.822;2023-06-01T05:32:34;13.33;;;5.17;;
5452;SDS011;2749;53.576;9.822;2023-06-01T05:35:00;7.97;;;5.17;;
5452;SDS011;2749;53.576;9.822;2023-06-01T05:37:26;14.13;;;5.30;;
5452;SDS011;2749;53.576;9.822;2023-06-01T05:39:52;9.00;;;4.60;;
5452;SDS011;2749;53.576;9.822;2023-06-01T05:42:18;10.93;;;5.00;;
5452;SDS011;2749;53.576;9.822;2023-06-01T05:44:44;12.30;;;5.57;;
5452;SDS011;2749;53.576;9.822;2023-06-01T05:47:10;7.47;;;3.57;;
5452;SDS011;2749;53.576;9.822;2023-06-01T05:49:36;7.67;;;4.40;;
5452;SDS011;2749;53.576;9.822;2023-06-01T05:52:03;11.83;;;5.47;;
5452;SDS011;2749;53.576;9.822;2023-06-01T05:54:30;7.80;;;3.90;;
5452;SDS011;2749;53.576;9.822;2023-06-01T05:56:56;11.80;;;4.93;;
5452;SDS011;2749;53.576;9.822;2023-06-01T05:59:22;7.67;;;5.07;;
5452;SDS011;2749;53.576;9.822;2023-06-01T06:01:47;14.03;;;5.43;;
5452;SDS011;2749;53.576;9.822;2023-06-01T06:04:13;9.93;;;5.10;;
5452;SDS011;2749;53.576;9.822;2023-06-01T06:06:40;9.40;;;4.63;;
5452;SDS011;2749;53.576;9.822;2023-06-01T06:09:06;8.17;;;3.93;;
5452;SDS011;2749;53.576;9.822;2023-06-01T06:11:32;4.30;;;3.20;;
5452;SDS011;2749;53.576;9.822;2023-06-01T06:13:58;16.30;;;4.33;;
5452;SDS011;2749;53.576;9.822;2023-06-01T06:16:23;6.87;;;3.57;;
5452;SDS011;2749;53.576;9.822;2023-06-01T06:18:49;7.60;;;4.90;;
5452;SDS011;2749;53.576;9.822;2023-06-01T06:21:15;7.17;;;3.63;;
5452;SDS011;2749;53.576;9.822;2023-06-01T06:23:42;6.43;;;3.20;;
5452;SDS011;2749;53.576;9.822;2023-06-01T06:26:08;9.83;;;5.07;;
5452;SDS011;2749;53.576;9.822;2023-06-01T06:28:34;5.53;;;4.20;;
5452;SDS011;2749;53.576;9.822;2023-06-01T06:31:00;12.07;;;5.87;;
5452;SDS011;2749;53.576;9.822;2023-06-01T06:33:26;10.10;;;4.50;;
5452;SDS011;2749;53.576;9.822;2023-06-01T06:35:52;11.27;;;4.07;;
5452;SDS011;2749;53.576;9.822;2023-06-01T06:38:19;10.03;;;3.50;;
5452;SDS011;2749;53.576;9.822;2023-06-01T06:40:45;11.43;;;3.60;;
5452;SDS011;2749;53.576;9.822;2023-06-01T06:43:11;9.87;;;4.30;;
5452;SDS011;2749;53.576;9.822;2023-06-01T06:45:38;7.17;;;3.43;;
5452;SDS011;2749;53.576;9.822;2023-06-01T06:48:04;11.10;;;4.20;;
5452;SDS011;2749;53.576;9.822;2023-06-01T06:50:30;8.47;;;6.40;;
5452;SDS011;2749;53.576;9.822;2023-06-01T06:52:56;6.60;;;4.53;;
5452;SDS011;2749;53.576;9.822;2023-06-01T06:55:24;8.27;;;4.33;;
5452;SDS011;2749;53.576;9.822;2023-06-01T06:57:51;4.90;;;3.93;;
5452;SDS011;2749;53.576;9.822;2023-06-01T07:00:17;9.73;;;3.90;;
5452;SDS011;2749;53.576;9.822;2023-06-01T07:02:44;7.70;;;4.60;;
5452;SDS011;2749;53.576;9.822;2023-06-01T07:05:10;10.93;;;4.67;;
5452;SDS011;2749;53.576;9.822;2023-06-01T07:07:36;8.77;;;4.80;;
5452;SDS011;2749;53.576;9.822;2023-06-01T07:10:03;9.37;;;4.67;;
5452;SDS011;2749;53.576;9.822;2023-06-01T07:12:29;16.50;;;5.03;;
5452;SDS011;2749;53.576;9.822;2023-06-01T07:14:55;9.50;;;3.70;;
5452;SDS011;2749;53.576;9.822;2023-06-01T07:17:21;8.43;;;3.40;;
5452;SDS011;2749;53.576;9.822;2023-06-01T07:19:47;14.03;;;3.10;;
5452;SDS011;2749;53.576;9.822;2023-06-01T07:22:13;7.63;;;3.60;;
5452;SDS011;2749;53.576;9.822;2023-06-01T07:24:39;10.93;;;3.70;;
5452;SDS011;2749;53.576;9.822;2023-06-01T07:27:05;7.93;;;3.90;;
5452;SDS011;2749;53.576;9.822;2023-06-01T07:29:32;11.53;;;3.90;;
5452;SDS011;2749;53.576;9.822;2023-06-01T07:31:58;10.53;;;3.40;;
5452;SDS011;2749;53.576;9.822;2023-06-01T07:34:24;7.30;;;3.00;;
5452;SDS011;2749;53.576;9.822;2023-06-01T07:36:50;11.73;;;3.30;;
5452;SDS011;2749;53.576;9.822;2023-06-01T07:39:16;8.30;;;3.40;;
5452;SDS011;2749;53.576;9.822;2023-06-01T07:41:45;7.47;;;3.53;;
5452;SDS011;2749;53.576;9.822;2023-06-01T07:44:11;29.60;;;4.27;;
5452;SDS011;2749;53.576;9.822;2023-06-01T07:46:37;11.67;;;6.13;;
5452;SDS011;2749;53.576;9.822;2023-06-01T07:49:03;14.53;;;3.97;;
5452;SDS011;2749;53.576;9.822;2023-06-01T07:51:29;14.57;;;3.30;;
5452;SDS011;2749;53.576;9.822;2023-06-01T07:53:56;9.50;;;3.70;;
5452;SDS011;2749;53.576;9.822;2023-06-01T07:56:23;6.70;;;3.40;;
5452;SDS011;2749;53.576;9.822;2023-06-01T07:58:51;9.70;;;3.80;;
5452;SDS011;2749;53.576;9.822;2023-06-01T08:01:17;7.70;;;3.60;;
5452;SDS011;2749;53.576;9.822;2023-06-01T08:03:43;8.97;;;3.87;;
5452;SDS011;2749;53.576;9.822;2023-06-01T08:06:09;12.70;;;4.03;;
5452;SDS011;2749;53.576;9.822;2023-06-01T08:08:36;9.20;;;3.33;;
5452;SDS011;2749;53.576;9.822;2023-06-01T08:11:02;7.03;;;3.73;;
5452;SDS011;2749;53.576;9.822;2023-06-01T08:13:28;10.97;;;3.17;;
5452;SDS011;2749;53.576;9.822;2023-06-01T08:15:54;4.53;;;2.47;;
5452;SDS011;2749;53.576;9.822;2023-06-01T08:18:20;13.73;;;4.20;;
5452;SDS011;2749;53.576;9.822;2023-06-01T08:20:47;6.50;;;2.83;;
5452;SDS011;2749;53.576;9.822;2023-06-01T08:23:13;7.10;;;3.10;;
5452;SDS011;2749;53.576;9.822;2023-06-01T08:25:41;9.43;;;3.30;;
5452;SDS011;2749;53.576;9.822;2023-06-01T08:28:07;9.00;;;4.30;;
5452;SDS011;2749;53.576;9.822;2023-06-01T08:30:33;4.37;;;2.73;;
5452;SDS011;2749;53.576;9.822;2023-06-01T08:32:59;5.03;;;2.57;;
5452;SDS011;2749;53.576;9.822;2023-06-01T08:35:27;8.07;;;2.70;;
5452;SDS011;2749;53.576;9.822;2023-06-01T08:37:53;3.30;;;1.90;;
5452;SDS011;2749;53.576;9.822;2023-06-01T08:40:19;5.50;;;2.57;;
5452;SDS011;2749;53.576;9.822;2023-06-01T08:43:04;7.63;;;5.33;;
5452;SDS011;2749;53.576;9.822;2023-06-01T08:45:31;6.50;;;2.77;;
5452;SDS011;2749;53.576;9.822;2023-06-01T08:47:57;4.00;;;2.33;;
5452;SDS011;2749;53.576;9.822;2023-06-01T08:50:24;3.80;;;2.83;;
5452;SDS011;2749;53.576;9.822;2023-06-01T08:52:52;7.60;;;3.10;;
5452;SDS011;2749;53.576;9.822;2023-06-01T08:55:20;4.93;;;3.50;;
5452;SDS011;2749;53.576;9.822;2023-06-01T08:57:46;11.80;;;2.90;;
5452;SDS011;2749;53.576;9.822;2023-06-01T09:00:12;7.20;;;2.33;;
5452;SDS011;2749;53.576;9.822;2023-06-01T09:02:39;10.17;;;3.53;;
5452;SDS011;2749;53.576;9.822;2023-06-01T09:05:05;7.57;;;3.03;;
5452;SDS011;2749;53.576;9.822;2023-06-01T09:07:31;5.90;;;2.43;;
5452;SDS011;2749;53.576;9.822;2023-06-01T09:09:57;6.83;;;2.93;;
5452;SDS011;2749;53.576;9.822;2023-06-01T09:12:24;3.83;;;2.53;;
5452;SDS011;2749;53.576;9.822;2023-06-01T09:14:51;4.17;;;2.40;;
5452;SDS011;2749;53.576;9.822;2023-06-01T09:17:31;6.30;;;2.97;;
5452;SDS011;2749;53.576;9.822;2023-06-01T09:19:58;9.37;;;3.37;;
5452;SDS011;2749;53.576;9.822;2023-06-01T09:22:24;6.17;;;2.40;;
5452;SDS011;2749;53.576;9.822;2023-06-01T09:24:56;9.00;;;2.50;;
5452;SDS011;2749;53.576;9.822;2023-06-01T09:27:23;7.53;;;3.20;;
5452;SDS011;2749;53.576;9.822;2023-06-01T09:29:58;12.27;;;3.63;;
5452;SDS011;2749;53.576;9.822;2023-06-01T09:32:24;7.83;;;2.63;;
5452;SDS011;2749;53.576;9.822;2023-06-01T09:34:51;6.63;;;2.40;;
5452;SDS011;2749;53.576;9.822;2023-06-01T09:37:17;13.17;;;4.33;;
5452;SDS011;2749;53.576;9.822;2023-06-01T09:39:43;10.10;;;3.37;;
5452;SDS011;2749;53.576;9.822;2023-06-01T09:42:09;6.53;;;2.60;;
5452;SDS011;2749;53.576;9.822;2023-06-01T09:44:35;16.40;;;8.43;;
5452;SDS011;2749;53.576;9.822;2023-06-01T09:47:02;8.67;;;2.90;;
5452;SDS011;2749;53.576;9.822;2023-06-01T09:49:29;9.57;;;3.03;;
5452;SDS011;2749;53.576;9.822;2023-06-01T09:56:58;9.27;;;3.83;;
5452;SDS011;2749;53.576;9.822;2023-06-01T09:59:24;6.90;;;4.20;;
5452;SDS011;2749;53.576;9.822;2023-06-01T10:01:53;7.33;;;3.30;;
5452;SDS011;2749;53.576;9.822;2023-06-01T10:04:21;6.30;;;2.90;;
5452;SDS011;2749;53.576;9.822;2023-06-01T10:06:47;7.87;;;3.67;;
5452;SDS011;2749;53.576;9.822;2023-06-01T10:09:16;8.20;;;3.60;;
5452;SDS011;2749;53.576;9.822;2023-06-01T10:11:44;5.50;;;2.87;;
5452;SDS011;2749;53.576;9.822;2023-06-01T10:14:10;6.70;;;2.90;;
5452;SDS011;2749;53.576;9.822;2023-06-01T10:16:36;14.47;;;3.80;;
5452;SDS011;2749;53.576;9.822;2023-06-01T10:19:03;12.50;;;3.97;;
5452;SDS011;2749;53.576;9.822;2023-06-01T10:21:29;5.23;;;3.00;;
5452;SDS011;2749;53.576;9.822;2023-06-01T10:23:57;9.83;;;3.77;;
5452;SDS011;2749;53.576;9.822;2023-06-01T10:26:23;4.97;;;2.57;;
5452;SDS011;2749;53.576;9.822;2023-06-01T10:28:50;9.40;;;2.70;;
5452;SDS011;2749;53.576;9.822;2023-06-01T10:31:32;10.93;;;3.63;;
5452;SDS011;2749;53.576;9.822;2023-06-01T10:33:58;12.20;;;3.63;;
5452;SDS011;2749;53.576;9.822;2023-06-01T10:36:24;9.23;;;3.20;;
5452;SDS011;2749;53.576;9.822;2023-06-01T10:39:26;8.30;;;2.57;;
5452;SDS011;2749;53.576;9.822;2023-06-01T10:41:53;5.10;;;2.63;;
5452;SDS011;2749;53.576;9.822;2023-06-01T10:46:48;10.47;;;3.17;;
5452;SDS011;2749;53.576;9.822;2023-06-01T10:49:14;19.37;;;5.40;;
5452;SDS011;2749;53.576;9.822;2023-06-01T10:51:40;6.23;;;2.33;;
5452;SDS011;2749;53.576;9.822;2023-06-01T10:54:23;3.30;;;1.93;;
5452;SDS011;2749;53.576;9.822;2023-06-01T10:57:17;6.30;;;3.10;;
5452;SDS011;2749;53.576;9.822;2023-06-01T10:59:36;9.63;;;2.93;;
5452;SDS011;2749;53.576;9.822;2023-06-01T11:02:03;11.30;;;3.23;;
5452;SDS011;2749;53.576;9.822;2023-06-01T11:04:36;5.47;;;2.80;;
5452;SDS011;2749;53.576;9.822;2023-06-01T11:09:47;10.10;;;2.67;;
5452;SDS011;2749;53.576;9.822;2023-06-01T11:12:13;8.70;;;3.40;;
5452;SDS011;2749;53.576;9.822;2023-06-01T11:14:41;10.57;;;3.33;;
5452;SDS011;2749;53.576;9.822;2023-06-01T11:17:28;6.70;;;2.97;;
5452;SDS011;2749;53.576;9.822;2023-06-01T11:19:56;4.60;;;2.30;;
5452;SDS011;2749;53.576;9.822;2023-06-01T11:22:24;10.90;;;2.57;;
5452;SDS011;2749;53.576;9.822;2023-06-01T11:24:51;7.43;;;2.33;;
5452;SDS011;2749;53.576;9.822;2023-06-01T11:27:20;6.10;;;2.37;;
5452;SDS011;2749;53.576;9.822;2023-06-01T11:29:49;7.70;;;3.30;;
5452;SDS011;2749;53.576;9.822;2023-06-01T11:32:15;4.50;;;2.10;;
5452;SDS011;2749;53.576;9.822;2023-06-01T11:34:41;9.90;;;2.67;;
5452;SDS011;2749;53.576;9.822;2023-06-01T11:39:40;3.53;;;1.80;;
5452;SDS011;2749;53.576;9.822;2023-06-01T11:44:32;14.47;;;2.73;;
5452;SDS011;2749;53.576;9.822;2023-06-01T11:46:59;8.63;;;2.77;;
5452;SDS011;2749;53.576;9.822;2023-06-01T11:49:25;5.53;;;2.80;;
5452;SDS011;2749;53.576;9.822;2023-06-01T11:51:52;5.67;;;2.50;;
5452;SDS011;2749;53.576;9.822;2023-06-01T11:54:25;4.43;;;1.80;;
5452;SDS011;2749;53.576;9.822;2023-06-01T11:56:51;5.97;;;2.43;;
5452;SDS011;2749;53.576;9.822;2023-06-01T11:59:17;4.50;;;2.17;;
5452;SDS011;2749;53.576;9.822;2023-06-01T12:01:44;7.90;;;2.30;;
5452;SDS011;2749;53.576;9.822;2023-06-01T12:04:17;7.50;;;2.47;;
5452;SDS011;2749;53.576;9.822;2023-06-01T12:06:43;7.57;;;3.73;;
5452;SDS011;2749;53.576;9.822;2023-06-01T12:09:10;3.67;;;2.20;;
5452;SDS011;2749;53.576;9.822;2023-06-01T12:11:36;5.17;;;3.37;;
5452;SDS011;2749;53.576;9.822;2023-06-01T12:14:02;5.23;;;2.90;;
5452;SDS011;2749;53.576;9.822;2023-06-01T12:19:15;7.00;;;2.63;;
5452;SDS011;2749;53.576;9.822;2023-06-01T12:21:46;4.13;;;1.90;;
5452;SDS011;2749;53.576;9.822;2023-06-01T12:24:12;7.70;;;3.10;;
5452;SDS011;2749;53.576;9.822;2023-06-01T12:26:38;5.70;;;2.37;;
5452;SDS011;2749;53.576;9.822;2023-06-01T12:29:05;6.40;;;2.37;;
5452;SDS011;2749;53.576;9.822;2023-06-01T12:31:31;8.60;;;2.37;;
5452;SDS011;2749;53.576;9.822;2023-06-01T12:33:57;7.67;;;3.20;;
5452;SDS011;2749;53.576;9.822;2023-06-01T12:36:30;6.27;;;2.53;;
5452;SDS011;2749;53.576;9.822;2023-06-01T12:38:57;5.73;;;2.10;;
5452;SDS011;2749;53.576;9.822;2023-06-01T12:41:27;13.00;;;2.63;;
5452;SDS011;2749;53.576;9.822;2023-06-01T12:43:53;6.13;;;3.23;;
5452;SDS011;2749;53.576;9.822;2023-06-01T12:46:29;5.67;;;2.07;;
5452;SDS011;2749;53.576;9.822;2023-06-01T12:49:11;8.30;;;2.60;;
5452;SDS011;2749;53.576;9.822;2023-06-01T12:51:37;9.87;;;2.50;;
5452;SDS011;2749;53.576;9.822;2023-06-01T12:54:03;7.30;;;2.60;;
5452;SDS011;2749;53.576;9.822;2023-06-01T12:56:29;6.83;;;2.47;;
5452;SDS011;2749;53.576;9.822;2023-06-01T12:58:55;4.50;;;1.87;;
5452;SDS011;2749;53.576;9.822;2023-06-01T13:01:20;7.70;;;2.20;;
5452;SDS011;2749;53.576;9.822;2023-06-01T13:03:46;3.67;;;1.70;;
5452;SDS011;2749;53.576;9.822;2023-06-01T13:06:14;7.43;;;2.07;;
5452;SDS011;2749;53.576;9.822;2023-06-01T13:08:41;8.50;;;2.07;;
5452;SDS011;2749;53.576;9.822;2023-06-01T13:11:07;6.53;;;1.63;;
5452;SDS011;2749;53.576;9.822;2023-06-01T13:13:33;7.40;;;2.33;;
5452;SDS011;2749;53.576;9.822;2023-06-01T13:15:59;7.23;;;2.37;;
5452;SDS011;2749;53.576;9.822;2023-06-01T13:18:26;8.43;;;2.10;;
5452;SDS011;2749;53.576;9.822;2023-06-01T13:20:52;6.40;;;2.00;;
5452;SDS011;2749;53.576;9.822;2023-06-01T13:23:18;9.93;;;2.57;;
5452;SDS011;2749;53.576;9.822;2023-06-01T13:25:44;6.67;;;1.93;;
5452;SDS011;2749;53.576;9.822;2023-06-01T13:28:11;7.30;;;2.27;;
5452;SDS011;2749;53.576;9.822;2023-06-01T13:30:38;9.43;;;2.27;;
5452;SDS011;2749;53.576;9.822;2023-06-01T13:33:04;6.47;;;2.60;;
5452;SDS011;2749;53.576;9.822;2023-06-01T13:35:31;8.00;;;1.93;;
5452;SDS011;2749;53.576;9.822;2023-06-01T13:37:57;12.77;;;2.83;;
5452;SDS011;2749;53.576;9.822;2023-06-01T13:40:23;8.90;;;1.77;;
5452;SDS011;2749;53.576;9.822;2023-06-01T13:42:50;3.53;;;1.77;;
5452;SDS011;2749;53.576;9.822;2023-06-01T13:45:17;4.40;;;2.07;;
5452;SDS011;2749;53.576;9.822;2023-06-01T13:47:42;6.93;;;2.77;;
5452;SDS011;2749;53.576;9.822;2023-06-01T13:50:09;5.47;;;2.87;;
5452;SDS011;2749;53.576;9.822;2023-06-01T13:52:37;4.53;;;2.03;;
5452;SDS011;2749;53.576;9.822;2023-06-01T13:55:03;8.33;;;2.20;;
5452;SDS011;2749;53.576;9.822;2023-06-01T13:57:29;7.90;;;2.23;;
5452;SDS011;2749;53.576;9.822;2023-06-01T13:59:55;5.83;;;2.17;;
5452;SDS011;2749;53.576;9.822;2023-06-01T14:02:21;7.10;;;3.70;;
5452;SDS011;2749;53.576;9.822;2023-06-01T14:04:47;12.03;;;2.80;;
5452;SDS011;2749;53.576;9.822;2023-06-01T14:07:13;10.97;;;2.17;;
5452;SDS011;2749;53.576;9.822;2023-06-01T14:09:39;8.10;;;1.97;;
5452;SDS011;2749;53.576;9.822;2023-06-01T14:12:05;5.87;;;1.73;;
5452;SDS011;2749;53.576;9.822;2023-06-01T14:14:31;17.60;;;2.87;;
5452;SDS011;2749;53.576;9.822;2023-06-01T14:16:57;7.07;;;2.37;;
5452;SDS011;2749;53.576;9.822;2023-06-01T14:19:23;4.80;;;1.70;;
5452;SDS011;2749;53.576;9.822;2023-06-01T14:21:51;6.90;;;3.07;;
5452;SDS011;2749;53.576;9.822;2023-06-01T14:24:17;5.27;;;2.67;;
5452;SDS011;2749;53.576;9.822;2023-06-01T14:26:43;9.40;;;2.07;;
5452;SDS011;2749;53.576;9.822;2023-06-01T14:29:10;11.43;;;2.57;;
5452;SDS011;2749;53.576;9.822;2023-06-01T14:31:36;7.30;;;2.70;;
5452;SDS011;2749;53.576;9.822;2023-06-01T14:34:02;12.43;;;2.47;;
5452;SDS011;2749;53.576;9.822;2023-06-01T14:36:28;10.93;;;2.60;;
5452;SDS011;2749;53.576;9.822;2023-06-01T14:38:55;7.67;;;2.77;;
5452;SDS011;2749;53.576;9.822;2023-06-01T14:41:21;10.40;;;3.30;;
5452;SDS011;2749;53.576;9.822;2023-06-01T14:43:46;7.40;;;2.23;;
5452;SDS011;2749;53.576;9.822;2023-06-01T14:46:12;6.80;;;2.90;;
5452;SDS011;2749;53.576;9.822;2023-06-01T14:48:38;8.87;;;2.70;;
5452;SDS011;2749;53.576;9.822;2023-06-01T14:51:04;14.40;;;2.80;;
5452;SDS011;2749;53.576;9.822;2023-06-01T14:53:30;6.93;;;3.10;;
5452;SDS011;2749;53.576;9.822;2023-06-01T14:55:56;14.83;;;2.70;;
5452;SDS011;2749;53.576;9.822;2023-06-01T14:58:22;8.20;;;2.83;;
5452;SDS011;2749;53.576;9.822;2023-06-01T15:00:48;8.03;;;2.20;;
5452;SDS011;2749;53.576;9.822;2023-06-01T15:03:14;13.10;;;3.40;;
5452;SDS011;2749;53.576;9.822;2023-06-01T15:05:40;13.70;;;4.90;;
5452;SDS011;2749;53.576;9.822;2023-06-01T15:08:06;6.43;;;2.47;;
5452;SDS011;2749;53.576;9.822;2023-06-01T15:10:32;11.53;;;2.53;;
5452;SDS011;2749;53.576;9.822;2023-06-01T15:12:58;9.10;;;2.53;;
5452;SDS011;2749;53.576;9.822;2023-06-01T15:15:24;11.97;;;2.90;;
5452;SDS011;2749;53.576;9.822;2023-06-01T15:17:52;8.87;;;3.33;;
5452;SDS011;2749;53.576;9.822;2023-06-01T15:20:18;10.73;;;3.10;;
5452;SDS011;2749;53.576;9.822;2023-06-01T15:22:44;11.80;;;3.00;;
5452;SDS011;2749;53.576;9.822;2023-06-01T15:25:10;12.70;;;2.77;;
5452;SDS011;2749;53.576;9.822;2023-06-01T15:27:35;10.27;;;3.27;;
5452;SDS011;2749;53.576;9.822;2023-06-01T15:30:02;5.33;;;2.70;;
5452;SDS011;2749;53.576;9.822;2023-06-01T15:32:28;7.80;;;2.90;;